Time;durP1;ratioP1;P1;durP2;ratioP2;P2;SDS_P1;SDS_P2;PMS_P1;PMS_P2;Temp;Humidity;BMP_temperature;BMP_pressure;BME280_temperature;BME280_humidity;BME280_pressure;Samples;Min_cycle;Max_cycle;Signal;HPM_P1;HPM_P2
2020/12/24 00:02:14;;;;;;;6.07;1.00;;;;;;;7.68;96.27;100579.44;5053004;28;20903;-78
2020/12/24 00:04:39;;;;;;;5.20;1.10;;;;;;;7.67;96.24;100582.94;5045531;28;20057;-78
2020/12/24 00:07:04;;;;;;;14.80;1.40;;;;;;;7.74;95.81;100591.50;5056433;28;20476;-80
2020/12/24 00:09:30;;;;;;;8.05;2.08;;;;;;;7.66;96.60;100586.50;5059867;28;20049;-79
2020/12/24 00:11:55;;;;;;;4.88;1.05;;;;;;;7.71;96.08;100589.81;5058524;28;20032;-79
2020/12/24 00:14:21;;;;;;;10.23;2.20;;;;;;;7.85;94.36;100584.06;5057738;28;20032;-79
2020/12/24 00:16:47;;;;;;;5.10;1.20;;;;;;;7.85;94.44;100580.56;5057270;28;20539;-79
2020/12/24 00:19:12;;;;;;;11.32;1.35;;;;;;;7.88;94.15;100578.69;5055583;28;20059;-80
2020/12/24 00:21:38;;;;;;;8.98;1.27;;;;;;;7.82;94.05;100572.78;5058143;28;20020;-79
2020/12/24 00:24:04;;;;;;;9.20;1.98;;;;;;;7.76;94.77;100580.00;5061011;28;20028;-79
2020/12/24 00:26:29;;;;;;;11.25;1.95;;;;;;;7.77;95.28;100571.19;5053338;28;20095;-80
2020/12/24 00:28:55;;;;;;;7.57;1.48;;;;;;;7.88;94.38;100583.06;5058262;28;20074;-80
2020/12/24 00:31:20;;;;;;;8.38;1.45;;;;;;;7.81;95.13;100573.69;5054199;28;20029;-79
2020/12/24 00:33:45;;;;;;;6.18;1.33;;;;;;;7.82;95.03;100576.28;5060550;28;20025;-79
2020/12/24 00:36:11;;;;;;;8.93;2.40;;;;;;;7.82;95.30;100586.78;5052486;28;20119;-79
2020/12/24 00:38:36;;;;;;;8.20;1.42;;;;;;;7.80;95.32;100583.38;5056795;28;20085;-80
2020/12/24 00:41:01;;;;;;;9.05;1.40;;;;;;;7.77;95.61;100586.97;5052578;28;20028;-79
2020/12/24 00:43:27;;;;;;;5.53;1.58;;;;;;;7.73;96.20;100585.38;5055085;28;20562;-79
2020/12/24 00:45:52;;;;;;;9.90;1.98;;;;;;;7.70;96.19;100585.47;5050689;28;20036;-79
2020/12/24 00:48:17;;;;;;;9.40;2.28;;;;;;;7.72;97.00;100574.91;5055782;28;20059;-79
2020/12/24 00:50:43;;;;;;;8.32;1.30;;;;;;;7.72;96.63;100580.16;5054530;28;20100;-80
2020/12/24 00:53:08;;;;;;;9.82;2.15;;;;;;;7.81;95.68;100581.59;5052577;28;20047;-79
2020/12/24 00:55:33;;;;;;;5.80;1.90;;;;;;;7.79;95.11;100579.03;5049515;28;20500;-79
2020/12/24 00:57:59;;;;;;;5.78;1.00;;;;;;;7.70;95.81;100568.84;5046671;28;20025;-79
2020/12/24 01:00:24;;;;;;;11.25;1.52;;;;;;;7.72;95.65;100572.25;5052299;28;20512;-79
2020/12/24 01:02:49;;;;;;;8.18;1.90;;;;;;;7.64;95.98;100562.03;5051429;28;20048;-80
2020/12/24 01:05:14;;;;;;;9.80;1.52;;;;;;;7.70;94.92;100567.06;5058404;28;20034;-80
2020/12/24 01:07:40;;;;;;;6.07;1.33;;;;;;;7.63;95.33;100556.81;5060677;28;20025;-80
2020/12/24 01:10:07;;;;;;;6.30;1.58;;;;;;;7.58;96.23;100559.63;5058577;28;20063;-79
2020/12/24 01:12:32;;;;;;;7.22;1.73;;;;;;;7.63;95.83;100556.81;5052696;28;20059;-80
2020/12/24 01:14:58;;;;;;;7.05;1.88;;;;;;;7.57;95.82;100560.53;5055530;28;20044;-79
2020/12/24 01:17:23;;;;;;;11.38;1.85;;;;;;;7.52;96.53;100557.22;5056849;28;20055;-80
2020/12/24 01:19:48;;;;;;;7.78;1.45;;;;;;;7.44;97.31;100560.13;5053712;28;20135;-80
2020/12/24 01:22:14;;;;;;;11.02;1.70;;;;;;;7.56;96.06;100558.81;5052819;28;20029;-80
2020/12/24 01:24:39;;;;;;;7.60;1.77;;;;;;;7.61;96.11;100564.78;5053537;28;20082;-79
2020/12/24 01:27:04;;;;;;;9.23;2.00;;;;;;;7.58;96.46;100562.28;5058040;28;20401;-84
2020/12/24 01:29:30;;;;;;;5.45;1.05;;;;;;;7.62;96.92;100578.78;5055938;28;20072;-84
2020/12/24 01:31:55;;;;;;;13.23;1.98;;;;;;;7.61;96.76;100577.91;5048798;28;20035;-84
2020/12/24 01:34:21;;;;;;;5.68;1.48;;;;;;;7.61;96.88;100580.56;5058380;28;20054;-84
2020/12/24 01:36:46;;;;;;;8.88;1.40;;;;;;;7.57;97.63;100583.34;5061081;28;20020;-84
2020/12/24 01:39:12;;;;;;;9.65;1.50;;;;;;;7.61;96.65;100582.31;5043888;28;20029;-84
2020/12/24 01:41:37;;;;;;;7.82;1.80;;;;;;;7.59;97.37;100585.03;5059148;28;20027;-85
2020/12/24 01:44:03;;;;;;;11.88;1.75;;;;;;;7.56;97.54;100592.16;5063931;28;20029;-85
2020/12/24 01:46:28;;;;;;;5.53;1.30;;;;;;;7.62;96.63;100590.16;5058477;28;20031;-84
2020/12/24 01:48:54;;;;;;;10.70;1.45;;;;;;;7.66;96.13;100594.41;5061891;28;20032;-85
2020/12/24 01:51:29;;;;;;;10.88;1.58;;;;;;;7.62;97.13;100594.56;5056954;28;20429;-85
2020/12/24 01:53:57;;;;;;;10.60;1.35;;;;;;;7.61;96.65;100591.06;5049593;28;20532;-85
2020/12/24 01:56:23;;;;;;;4.60;1.20;;;;;;;7.59;97.16;100581.53;5055296;28;20374;-85
2020/12/24 01:58:50;;;;;;;11.85;3.05;;;;;;;7.54;97.31;100584.34;5060401;28;20028;-84
2020/12/24 02:01:15;;;;;;;5.45;1.65;;;;;;;7.55;96.77;100579.94;5053176;28;20042;-85
2020/12/24 02:03:41;;;;;;;8.80;2.65;;;;;;;7.57;97.01;100568.41;5072937;28;20028;-83
2020/12/24 02:06:06;;;;;;;9.45;1.48;;;;;;;7.48;97.44;100577.53;5054051;28;20102;-84
2020/12/24 02:08:32;;;;;;;9.25;1.35;;;;;;;7.43;97.93;100573.31;5059220;28;20361;-84
2020/12/24 02:10:58;;;;;;;11.45;2.47;;;;;;;7.45;97.46;100569.72;5047451;28;20163;-84
2020/12/24 02:13:24;;;;;;;12.52;2.05;;;;;;;7.47;97.76;100574.94;5056792;28;20087;-84
2020/12/24 02:15:49;;;;;;;8.13;1.58;;;;;;;7.61;96.46;100574.44;5054558;28;20029;-84
2020/12/24 02:18:14;;;;;;;11.05;2.08;;;;;;;7.55;97.23;100572.88;5058981;28;20047;-83
2020/12/24 02:20:44;;;;;;;9.80;2.13;;;;;;;7.63;95.66;100572.59;5056038;28;20571;-84
2020/12/24 02:23:10;;;;;;;15.07;3.17;;;;;;;7.58;96.28;100575.41;5058948;28;20463;-84
2020/12/24 02:25:36;;;;;;;11.73;2.60;;;;;;;7.58;96.44;100567.53;5034956;28;20116;-84
2020/12/24 02:28:02;;;;;;;12.60;2.75;;;;;;;7.59;95.77;100561.34;5039485;28;20095;-80
2020/12/24 02:30:28;;;;;;;17.25;3.45;;;;;;;7.60;95.73;100564.84;5055678;28;20028;-80
2020/12/24 02:32:53;;;;;;;8.90;2.00;;;;;;;7.64;95.50;100548.88;5052546;28;20025;-80
2020/12/24 02:35:18;;;;;;;10.15;1.90;;;;;;;7.58;96.12;100558.75;5056538;28;20039;-80
2020/12/24 02:37:43;;;;;;;16.05;2.88;;;;;;;7.57;95.91;100557.91;5049278;28;20025;-80
2020/12/24 02:40:09;;;;;;;8.52;2.67;;;;;;;7.58;96.26;100556.13;5053594;28;20036;-79
2020/12/24 02:42:34;;;;;;;11.32;2.25;;;;;;;7.57;96.46;100549.16;5063393;28;20024;-80
2020/12/24 02:44:59;;;;;;;9.40;2.22;;;;;;;7.62;95.63;100537.56;5051042;28;20017;-80
2020/12/24 02:47:25;;;;;;;9.60;1.92;;;;;;;7.62;95.71;100541.94;5036320;28;20406;-80
2020/12/24 02:49:50;;;;;;;14.57;3.97;;;;;;;7.58;96.33;100535.09;5058974;28;20059;-79
2020/12/24 02:52:15;;;;;;;11.02;2.65;;;;;;;7.68;95.34;100539.09;5058560;28;20023;-81
2020/12/24 02:54:41;;;;;;;14.52;2.50;;;;;;;7.66;95.60;100530.41;5037360;28;20134;-81
2020/12/24 02:57:06;;;;;;;11.98;2.20;;;;;;;7.65;95.66;100540.06;5036682;28;20029;-80
2020/12/24 02:59:31;;;;;;;17.27;4.45;;;;;;;7.62;96.05;100528.81;5061251;28;20028;-79
2020/12/24 03:05:18;;;;;;;12.55;3.55;;;;;;;7.59;96.39;100535.06;5046575;28;20061;-80
2020/12/24 03:07:49;;;;;;;12.15;2.50;;;;;;;7.52;96.62;100537.03;5055605;28;20067;-80
2020/12/24 03:10:15;;;;;;;18.90;3.55;;;;;;;7.49;97.06;100537.16;5056115;28;20055;-80
2020/12/24 03:12:40;;;;;;;13.30;2.88;;;;;;;7.55;96.54;100536.06;5058341;28;20024;-80
2020/12/24 03:15:05;;;;;;;9.93;2.40;;;;;;;7.58;96.50;100545.59;5057288;28;20031;-81
2020/12/24 03:17:30;;;;;;;12.90;2.40;;;;;;;7.63;95.68;100546.28;5048964;28;20052;-80
2020/12/24 03:19:56;;;;;;;15.98;3.03;;;;;;;7.60;96.04;100547.28;5058705;28;20021;-80
2020/12/24 03:22:21;;;;;;;14.50;3.63;;;;;;;7.53;96.82;100543.16;5062542;28;20028;-81
2020/12/24 03:24:46;;;;;;;12.48;2.45;;;;;;;7.57;96.12;100550.00;5052792;28;20025;-81
2020/12/24 03:27:11;;;;;;;12.95;2.63;;;;;;;7.58;96.16;100551.75;5058360;28;20389;-83
2020/12/24 03:29:37;;;;;;;18.38;3.28;;;;;;;7.61;95.00;100548.13;5055503;28;20025;-83
2020/12/24 03:32:02;;;;;;;7.20;2.22;;;;;;;7.63;95.17;100536.66;5054898;28;20036;-83
2020/12/24 03:34:27;;;;;;;16.80;3.05;;;;;;;7.52;95.60;100539.66;5060010;28;20021;-83
2020/12/24 03:36:52;;;;;;;15.02;2.40;;;;;;;7.57;94.65;100549.16;5059540;28;20536;-83
2020/12/24 03:39:18;;;;;;;15.20;3.10;;;;;;;7.52;95.39;100541.44;5060042;28;20028;-83
2020/12/24 03:41:43;;;;;;;13.63;2.20;;;;;;;7.53;95.18;100543.16;5052813;28;20513;-82
2020/12/24 03:44:08;;;;;;;13.77;2.92;;;;;;;7.48;95.55;100548.59;5057959;28;20039;-82
2020/12/24 03:46:34;;;;;;;12.02;1.80;;;;;;;7.47;95.14;100543.38;5054564;28;20032;-83
2020/12/24 03:48:59;;;;;;;8.15;1.85;;;;;;;7.48;94.84;100548.59;5054617;28;20025;-82
2020/12/24 03:51:25;;;;;;;12.15;1.95;;;;;;;7.48;95.14;100540.72;5056253;28;20059;-83
2020/12/24 03:53:50;;;;;;;10.55;1.95;;;;;;;7.49;94.91;100544.19;5052138;28;20104;-83
2020/12/24 03:56:15;;;;;;;6.88;2.17;;;;;;;7.49;94.59;100547.69;5051455;28;20064;-82
2020/12/24 03:58:40;;;;;;;12.65;3.08;;;;;;;7.49;94.89;100549.44;5053896;28;20401;-83
2020/12/24 04:01:06;;;;;;;10.35;2.55;;;;;;;7.47;95.30;100552.13;5055476;28;20036;-82
2020/12/24 04:03:31;;;;;;;15.57;2.28;;;;;;;7.45;95.38;100553.09;5058374;28;20086;-83
2020/12/24 04:05:56;;;;;;;14.40;2.25;;;;;;;7.50;94.77;100552.00;5055624;28;20025;-83
2020/12/24 04:08:22;;;;;;;11.55;2.35;;;;;;;7.47;95.15;100544.22;5055217;28;20068;-82
2020/12/24 04:10:47;;;;;;;7.97;2.15;;;;;;;7.44;95.55;100549.63;5056220;28;20041;-83
2020/12/24 04:13:12;;;;;;;5.53;2.00;;;;;;;7.49;94.62;100552.94;5056718;28;20082;-82
2020/12/24 04:15:37;;;;;;;9.68;2.25;;;;;;;7.43;95.83;100550.53;5062811;28;20055;-83
2020/12/24 04:18:03;;;;;;;9.60;2.10;;;;;;;7.43;95.94;100553.16;5049718;28;20025;-82
2020/12/24 04:20:28;;;;;;;10.65;2.90;;;;;;;7.42;95.98;100550.56;5063311;28;20051;-82
2020/12/24 04:22:53;;;;;;;16.65;4.55;;;;;;;7.45;96.06;100547.84;5055427;28;20025;-82
2020/12/24 04:25:18;;;;;;;12.68;3.80;;;;;;;7.43;95.76;100552.28;5056102;28;20481;-83
2020/12/24 04:27:44;;;;;;;10.95;2.67;;;;;;;7.42;95.67;100543.53;5050640;28;20017;-82
2020/12/24 04:30:09;;;;;;;11.93;2.58;;;;;;;7.43;96.10;100547.03;5040165;28;20033;-83
2020/12/24 04:32:34;;;;;;;10.68;2.15;;;;;;;7.41;96.08;100547.09;5051973;28;20696;-82
2020/12/24 04:35:00;;;;;;;9.90;2.05;;;;;;;7.38;96.67;100549.84;5055541;28;20025;-83
2020/12/24 04:37:25;;;;;;;10.32;2.20;;;;;;;7.36;97.31;100566.56;5057648;28;20525;-82
2020/12/24 04:39:51;;;;;;;13.88;2.95;;;;;;;7.37;97.04;100582.28;5054840;28;20028;-83
2020/12/24 04:42:19;;;;;;;9.65;1.73;;;;;;;7.19;96.63;100606.59;5056234;28;20036;-83
2020/12/24 04:44:44;;;;;;;4.40;0.95;;;;;;;6.52;97.91;100617.53;5058241;28;20027;-80
2020/12/24 04:47:11;;;;;;;1.42;0.70;;;;;;;5.96;99.79;100630.59;5055633;28;20025;-80
2020/12/24 04:49:39;;;;;;;1.80;0.40;;;;;;;5.46;100.00;100659.00;5058232;28;20024;-81
2020/12/24 04:52:06;;;;;;;2.03;0.45;;;;;;;5.18;100.00;100659.75;5055681;28;20025;-81
2020/12/24 04:54:32;;;;;;;0.65;0.43;;;;;;;5.11;100.00;100671.25;5049037;28;20021;-82
2020/12/24 04:57:06;;;;;;;1.60;0.55;;;;;;;4.97;100.00;100664.63;5045745;28;20036;-81
2020/12/24 04:59:32;;;;;;;1.25;0.80;;;;;;;4.85;100.00;100673.66;5053057;28;20477;-81
2020/12/24 05:01:59;;;;;;;1.45;0.40;;;;;;;4.77;100.00;100675.56;5055511;28;20031;-82
2020/12/24 05:04:24;;;;;;;0.70;0.40;;;;;;;4.73;100.00;100685.28;5053165;28;20104;-82
2020/12/24 05:06:50;;;;;;;0.88;0.40;;;;;;;4.58;100.00;100691.72;5054805;28;20128;-82
2020/12/24 05:09:15;;;;;;;7.65;1.70;;;;;;;4.59;100.00;100695.19;5052076;28;20618;-81
2020/12/24 05:11:44;;;;;;;2.92;0.57;;;;;;;4.62;100.00;100705.59;5051928;28;20108;-82
2020/12/24 05:14:19;;;;;;;3.33;0.45;;;;;;;4.51;100.00;100712.81;5056021;28;20032;-82
2020/12/24 05:17:01;;;;;;;0.75;0.50;;;;;;;4.45;100.00;100718.19;5055965;28;20513;-82
2020/12/24 05:19:28;;;;;;;1.13;0.52;;;;;;;4.44;100.00;100727.78;5048189;28;20025;-82
2020/12/24 05:21:55;;;;;;;2.17;0.50;;;;;;;4.41;100.00;100735.69;5056435;28;20095;-82
2020/12/24 05:24:23;;;;;;;1.75;0.70;;;;;;;4.40;100.00;100742.69;5049012;28;20163;-83
2020/12/24 05:26:48;;;;;;;2.88;0.60;;;;;;;4.43;100.00;100740.91;5046939;28;20474;-82
2020/12/24 05:29:14;;;;;;;3.05;0.77;;;;;;;4.41;100.00;100747.00;5048135;28;20037;-80
2020/12/24 05:31:39;;;;;;;1.35;1.00;;;;;;;4.35;100.00;100741.91;5059555;28;20055;-82
2020/12/24 05:34:04;;;;;;;2.75;0.70;;;;;;;4.36;100.00;100755.84;5052022;28;20032;-82
2020/12/24 05:36:29;;;;;;;1.75;0.70;;;;;;;4.32;100.00;100757.69;5060702;28;20051;-82
2020/12/24 05:38:55;;;;;;;1.83;0.60;;;;;;;4.25;100.00;100753.47;5052930;28;20029;-81
2020/12/24 05:41:30;;;;;;;0.80;0.40;;;;;;;4.24;100.00;100762.22;5057857;28;20017;-82
2020/12/24 05:43:57;;;;;;;2.67;0.82;;;;;;;4.22;100.00;100766.63;5049193;28;20028;-82
2020/12/24 05:46:23;;;;;;;0.50;0.50;;;;;;;4.23;100.00;100775.31;5058789;28;20147;-83
2020/12/24 05:48:49;;;;;;;0.68;0.43;;;;;;;4.14;100.00;100785.06;5053040;28;20176;-83
2020/12/24 05:51:18;;;;;;;0.80;0.30;;;;;;;3.99;100.00;100806.28;5059039;28;20032;-82
2020/12/24 05:53:45;;;;;;;1.58;1.00;;;;;;;3.99;100.00;100790.59;5045570;28;20029;-83
2020/12/24 05:56:21;;;;;;;0.60;0.47;;;;;;;3.95;100.00;100807.22;5052668;28;20421;-83
2020/12/24 05:58:47;;;;;;;0.57;0.30;;;;;;;3.90;100.00;100817.75;5050829;28;20020;-83
2020/12/24 06:01:14;;;;;;;0.60;0.60;;;;;;;3.92;100.00;100817.75;5054583;28;20774;-82
2020/12/24 06:04:00;;;;;;;0.45;0.20;;;;;;;3.87;100.00;100830.03;5045326;28;20497;-83
2020/12/24 06:06:41;;;;;;;0.57;0.52;;;;;;;3.90;100.00;100832.56;5057731;28;20060;-81
2020/12/24 06:09:10;;;;;;;0.50;0.40;;;;;;;3.88;100.00;100836.97;5053144;28;20075;-82
2020/12/24 06:11:44;;;;;;;1.33;0.80;;;;;;;3.86;100.00;100833.50;5051894;28;20035;-82
2020/12/24 06:14:14;;;;;;;1.92;1.15;;;;;;;3.89;100.00;100839.56;5048482;28;20070;-83
2020/12/24 06:16:39;;;;;;;1.38;0.60;;;;;;;3.86;100.00;100844.81;5063981;28;20032;-83
2020/12/24 06:19:05;;;;;;;0.25;0.25;;;;;;;3.87;100.00;100846.59;5048740;28;20136;-82
2020/12/24 06:21:33;;;;;;;0.77;0.43;;;;;;;3.84;100.00;100856.22;5060301;28;20523;-83
2020/12/24 06:24:01;;;;;;;0.32;0.32;;;;;;;3.81;100.00;100846.66;5055639;28;20021;-82
2020/12/24 06:26:31;;;;;;;1.65;0.50;;;;;;;3.84;100.00;100864.06;5041911;28;20024;-82
2020/12/24 06:29:01;;;;;;;0.82;0.60;;;;;;;3.86;100.00;100870.13;5048956;28;20567;-83
2020/12/24 06:31:27;;;;;;;2.22;0.60;;;;;;;3.83;100.00;100868.44;5040704;28;20485;-82
2020/12/24 06:33:52;;;;;;;0.55;0.38;;;;;;;3.83;100.00;100881.50;5061302;28;20032;-82
2020/12/24 06:36:35;;;;;;;0.50;0.35;;;;;;;3.84;100.00;100887.59;5057523;28;20094;-82
2020/12/24 06:39:01;;;;;;;3.40;0.40;;;;;;;3.83;100.00;100898.94;5056661;28;20429;-82
2020/12/24 06:41:36;;;;;;;2.05;0.50;;;;;;;3.86;100.00;100910.19;5056050;28;20032;-82
2020/12/24 06:44:02;;;;;;;2.90;0.60;;;;;;;3.87;100.00;100924.16;5040792;28;20035;-82
2020/12/24 06:46:27;;;;;;;3.15;1.50;;;;;;;3.96;100.00;100936.22;5038435;28;20464;-82
2020/12/24 06:48:58;;;;;;;1.50;0.60;;;;;;;4.02;100.00;100938.75;5030959;28;20386;-82
2020/12/24 06:51:23;;;;;;;2.30;0.50;;;;;;;4.00;100.00;100946.59;5048893;28;20112;-82
2020/12/24 06:53:49;;;;;;;1.65;0.43;;;;;;;4.04;100.00;100966.59;5046522;28;20115;-83
2020/12/24 06:56:19;;;;;;;1.63;0.50;;;;;;;4.04;100.00;100973.56;5051021;28;20123;-82
2020/12/24 06:58:51;;;;;;;0.38;0.30;;;;;;;4.05;100.00;100981.41;5051877;28;20497;-80
2020/12/24 07:01:20;;;;;;;1.05;0.40;;;;;;;4.12;100.00;100993.50;5055317;28;20109;-82
2020/12/24 07:03:47;;;;;;;0.70;0.50;;;;;;;4.19;100.00;101002.13;5044242;28;20056;-82
2020/12/24 07:06:13;;;;;;;0.55;0.30;;;;;;;4.12;100.00;101014.44;5048129;28;20040;-83
2020/12/24 07:08:45;;;;;;;0.90;0.52;;;;;;;4.20;100.00;101027.38;5045288;28;20393;-82
2020/12/24 07:11:11;;;;;;;2.50;0.45;;;;;;;4.16;100.00;101038.78;5052441;28;20033;-83
2020/12/24 07:13:38;;;;;;;0.82;0.47;;;;;;;4.16;100.00;101047.47;5056957;28;20082;-82
2020/12/24 07:16:05;;;;;;;1.02;0.57;;;;;;;4.19;100.00;101051.81;5053622;28;20035;-82
2020/12/24 07:18:31;;;;;;;1.17;0.50;;;;;;;4.24;100.00;101062.22;5061656;28;20118;-82
2020/12/24 07:21:00;;;;;;;0.88;0.55;;;;;;;4.30;100.00;101077.81;5054935;28;20024;-82
2020/12/24 07:23:28;;;;;;;0.82;0.50;;;;;;;4.21;100.00;101078.81;5057757;28;20028;-82
2020/12/24 07:25:54;;;;;;;0.95;0.63;;;;;;;4.20;100.00;101090.16;5054227;28;20588;-83
2020/12/24 07:28:19;;;;;;;2.08;0.43;;;;;;;4.20;100.00;101091.94;5055112;28;20017;-83
2020/12/24 07:30:56;;;;;;;1.25;0.70;;;;;;;4.25;100.00;101092.72;5055594;28;20036;-82
2020/12/24 07:33:21;;;;;;;1.13;0.63;;;;;;;4.23;100.00;101100.59;5050009;28;20020;-83
2020/12/24 07:35:46;;;;;;;1.45;0.80;;;;;;;4.28;100.00;101108.41;5055586;28;20017;-83
2020/12/24 07:38:12;;;;;;;1.35;0.80;;;;;;;4.30;100.00;101112.69;5060813;28;20025;-84
2020/12/24 07:40:37;;;;;;;0.90;0.85;;;;;;;4.27;100.00;101119.75;5055405;28;20029;-83
2020/12/24 07:43:10;;;;;;;2.00;0.88;;;;;;;4.38;100.00;101130.94;5057463;28;20031;-82
2020/12/24 07:45:35;;;;;;;3.88;1.60;;;;;;;4.34;100.00;101126.63;5052010;28;20111;-83
2020/12/24 07:48:01;;;;;;;1.50;1.00;;;;;;;4.33;100.00;101123.13;5057203;28;20579;-83
2020/12/24 07:50:31;;;;;;;2.80;1.42;;;;;;;4.35;100.00;101118.72;5054193;28;20035;-82
2020/12/24 07:52:56;;;;;;;3.38;2.10;;;;;;;4.37;100.00;101127.44;5039150;28;20020;-82
2020/12/24 07:55:21;;;;;;;2.85;2.20;;;;;;;4.37;100.00;101135.28;5041364;28;20474;-82
2020/12/24 07:57:47;;;;;;;3.97;2.58;;;;;;;4.40;100.00;101150.94;5053842;28;20484;-83
2020/12/24 08:00:12;;;;;;;6.65;2.42;;;;;;;4.45;100.00;101153.50;5059180;28;20111;-83
2020/12/24 08:02:37;;;;;;;7.13;3.00;;;;;;;4.47;100.00;101171.78;5056388;28;20485;-82
2020/12/24 08:05:03;;;;;;;5.80;3.63;;;;;;;4.49;100.00;101170.88;5054285;28;20028;-83
2020/12/24 08:07:28;;;;;;;4.30;3.05;;;;;;;4.46;100.00;101173.53;5052835;28;20024;-82
2020/12/24 08:09:53;;;;;;;5.32;2.65;;;;;;;4.55;100.00;101186.50;5063717;28;20047;-83
2020/12/24 08:12:21;;;;;;;4.95;2.78;;;;;;;4.52;100.00;101185.66;5085433;28;20790;-82
2020/12/24 08:14:46;;;;;;;5.25;2.45;;;;;;;4.49;100.00;101185.72;5076294;28;20028;-82
2020/12/24 08:17:19;;;;;;;4.57;2.88;;;;;;;4.60;100.00;101176.81;5072765;28;20068;-82
2020/12/24 08:19:48;;;;;;;5.45;3.33;;;;;;;4.57;100.00;101169.03;5081782;28;20531;-82
2020/12/24 08:22:22;;;;;;;9.50;3.08;;;;;;;4.57;100.00;101173.41;5074141;28;20139;-82
2020/12/24 08:24:50;;;;;;;3.55;2.40;;;;;;;4.60;100.00;101165.50;5081076;28;20500;-82
2020/12/24 08:27:17;;;;;;;3.67;2.72;;;;;;;4.60;100.00;101162.88;5072072;28;20126;-82
2020/12/24 08:29:43;;;;;;;2.97;2.03;;;;;;;4.60;100.00;101178.59;5079424;28;20477;-82
2020/12/24 08:32:09;;;;;;;2.85;2.00;;;;;;;4.53;100.00;101177.81;5077546;28;20177;-82
2020/12/24 08:34:34;;;;;;;7.70;2.58;;;;;;;4.62;100.00;101192.53;5074309;28;20501;-82
2020/12/24 08:37:00;;;;;;;6.40;2.30;;;;;;;4.65;100.00;101205.56;5068183;28;20032;-82
2020/12/24 08:39:28;;;;;;;3.58;2.22;;;;;;;4.67;100.00;101214.28;5080512;28;20168;-82
2020/12/24 08:41:56;;;;;;;4.72;2.17;;;;;;;4.72;100.00;101220.31;5072369;28;20524;-81
2020/12/24 08:44:22;;;;;;;3.47;1.58;;;;;;;4.65;100.00;101227.38;5073207;28;20440;-82
2020/12/24 08:47:05;;;;;;;2.13;1.30;;;;;;;4.77;100.00;101236.81;5066973;28;20028;-82
2020/12/24 08:49:31;;;;;;;3.30;2.75;;;;;;;4.75;100.00;101230.72;5077324;28;20024;-82
2020/12/24 08:52:18;;;;;;;4.20;1.92;;;;;;;4.77;100.00;101238.56;5069558;28;20028;-82
2020/12/24 08:54:58;;;;;;;5.53;1.50;;;;;;;4.82;100.00;101255.06;5071013;28;20384;-82
2020/12/24 08:57:23;;;;;;;3.25;1.38;;;;;;;4.74;100.00;101252.56;5062225;28;20115;-83
2020/12/24 08:59:56;;;;;;;3.20;1.95;;;;;;;4.81;100.00;101271.69;5079859;28;20153;-82
2020/12/24 09:02:28;;;;;;;2.63;1.50;;;;;;;4.81;100.00;101276.91;5066579;28;20028;-82
2020/12/24 09:04:55;;;;;;;5.47;1.27;;;;;;;4.90;100.00;101290.75;5053857;28;20548;-82
2020/12/24 09:07:27;;;;;;;2.47;1.20;;;;;;;4.91;100.00;101287.22;5071621;28;20484;-82
2020/12/24 09:10:06;;;;;;;6.00;1.35;;;;;;;4.87;100.00;101290.81;5078991;28;20508;-81
2020/12/24 09:12:32;;;;;;;3.40;1.13;;;;;;;4.88;100.00;101292.53;5092280;28;20027;-81
2020/12/24 09:15:05;;;;;;;3.65;1.15;;;;;;;4.91;99.87;101295.09;5081673;28;20123;-81
2020/12/24 09:17:30;;;;;;;4.78;1.10;;;;;;;5.00;99.43;101301.97;5096202;28;20468;-82
2020/12/24 09:20:01;;;;;;;3.03;1.00;;;;;;;5.01;99.92;101302.81;5094641;28;20027;-82
2020/12/24 09:22:26;;;;;;;2.22;1.00;;;;;;;5.06;100.00;101308.88;5068890;28;20032;-82
2020/12/24 09:24:51;;;;;;;3.25;1.13;;;;;;;5.04;99.44;101308.91;5094093;28;20035;-84
2020/12/24 09:27:16;;;;;;;7.82;1.00;;;;;;;5.08;100.00;101321.06;5089778;28;20029;-78
2020/12/24 09:29:42;;;;;;;2.08;1.00;;;;;;;5.09;99.49;101321.94;5076301;28;20476;-78
2020/12/24 09:32:07;;;;;;;5.95;1.10;;;;;;;5.14;99.30;101330.59;5093769;28;20032;-78
2020/12/24 09:34:32;;;;;;;2.88;1.13;;;;;;;5.13;99.50;101331.50;5099513;28;20060;-77
2020/12/24 09:36:57;;;;;;;3.22;0.70;;;;;;;5.11;99.87;101339.34;5075240;28;20385;-77
2020/12/24 09:39:23;;;;;;;4.43;1.10;;;;;;;5.18;98.85;101335.78;5096647;28;20023;-77
2020/12/24 09:41:49;;;;;;;10.35;1.90;;;;;;;5.24;98.30;101342.69;5101559;28;20042;-78
2020/12/24 09:44:16;;;;;;;2.03;0.73;;;;;;;5.29;97.68;101348.72;5092667;28;20024;-79
2020/12/24 09:46:41;;;;;;;7.13;1.67;;;;;;;5.32;97.96;101353.94;5097502;28;20015;-77
2020/12/24 09:49:07;;;;;;;4.05;1.33;;;;;;;5.39;97.42;101362.56;5073918;28;20031;-79
2020/12/24 09:51:33;;;;;;;10.73;2.25;;;;;;;5.40;98.11;101373.03;5098373;28;20114;-79
2020/12/24 09:53:59;;;;;;;10.57;2.42;;;;;;;5.41;97.34;101372.13;5097397;28;20056;-79
2020/12/24 09:56:25;;;;;;;4.82;1.95;;;;;;;5.47;98.20;101376.41;5082307;28;20049;-80
2020/12/24 09:58:50;;;;;;;10.65;2.72;;;;;;;5.49;98.29;101372.03;5065783;28;20162;-80
2020/12/24 10:01:16;;;;;;;9.38;2.38;;;;;;;5.52;97.69;101379.81;5097102;28;20025;-77
2020/12/24 10:03:41;;;;;;;7.20;1.90;;;;;;;5.53;96.94;101386.81;5103747;28;20505;-80
2020/12/24 10:06:07;;;;;;;7.13;1.73;;;;;;;5.54;97.25;101393.78;5103294;28;20529;-78
2020/12/24 10:08:32;;;;;;;9.32;1.60;;;;;;;5.61;97.10;101391.94;5063996;28;20497;-78
2020/12/24 10:10:57;;;;;;;9.55;1.58;;;;;;;5.61;98.08;101399.81;5104554;28;20048;-80
2020/12/24 10:13:22;;;;;;;13.82;2.65;;;;;;;5.60;97.15;101401.56;5079813;28;20031;-80
2020/12/24 10:15:48;;;;;;;7.38;1.50;;;;;;;5.58;97.08;101402.50;5095027;28;20400;-80
2020/12/24 10:18:13;;;;;;;14.73;2.42;;;;;;;5.55;97.67;101407.78;5102917;28;20149;-80
2020/12/24 10:20:38;;;;;;;10.35;1.63;;;;;;;5.63;98.05;101411.16;5095886;28;20471;-80
2020/12/24 10:23:03;;;;;;;11.02;1.98;;;;;;;5.60;98.13;101411.19;5078522;28;20016;-80
2020/12/24 10:25:29;;;;;;;10.98;1.90;;;;;;;5.63;98.98;101411.16;5104228;28;20388;-79
2020/12/24 10:27:54;;;;;;;11.65;2.17;;;;;;;5.57;99.37;101405.97;5081721;28;20061;-79
2020/12/24 10:30:19;;;;;;;14.40;2.10;;;;;;;5.52;98.54;101405.19;5097609;28;20427;-78
2020/12/24 10:32:44;;;;;;;8.45;1.80;;;;;;;5.58;98.76;101416.47;5078989;28;20194;-79
2020/12/24 10:35:10;;;;;;;24.58;3.17;;;;;;;5.59;97.72;101425.19;5099648;28;20033;-78
2020/12/24 10:37:35;;;;;;;6.93;2.15;;;;;;;5.59;96.60;101417.34;5077223;28;20032;-79
2020/12/24 10:40:01;;;;;;;13.68;2.15;;;;;;;5.56;96.63;101418.22;5098003;28;20574;-78
2020/12/24 10:42:27;;;;;;;9.57;1.95;;;;;;;5.60;96.12;101417.31;5075811;28;20023;-80
2020/12/24 10:44:52;;;;;;;9.30;1.88;;;;;;;5.63;96.22;101405.91;5102306;28;20027;-80
2020/12/24 10:47:17;;;;;;;11.88;1.65;;;;;;;5.61;95.78;101408.53;5096416;28;20084;-79
2020/12/24 10:49:45;;;;;;;7.38;0.90;;;;;;;5.65;95.06;101404.97;5101395;28;20064;-80
2020/12/24 10:52:12;;;;;;;12.77;1.33;;;;;;;5.68;92.77;101401.47;5075976;28;20024;-80
2020/12/24 10:54:37;;;;;;;8.43;2.53;;;;;;;5.70;93.37;101392.66;5074133;28;20036;-80
2020/12/24 10:57:03;;;;;;;8.35;1.13;;;;;;;5.81;94.96;101391.63;5097176;28;20036;-79
2020/12/24 10:59:28;;;;;;;12.25;2.33;;;;;;;5.77;92.83;101398.69;5078081;28;20030;-80
2020/12/24 11:01:53;;;;;;;6.50;1.80;;;;;;;5.88;94.27;101388.03;5085105;28;20019;-80
2020/12/24 11:04:20;;;;;;;12.60;1.95;;;;;;;5.94;93.20;101396.69;5082133;28;20498;-78
2020/12/24 11:06:45;;;;;;;5.85;1.75;;;;;;;5.99;92.54;101394.00;5106170;28;20030;-78
2020/12/24 11:09:12;;;;;;;12.43;1.65;;;;;;;6.06;94.25;101398.25;5093647;28;20044;-79
2020/12/24 11:11:38;;;;;;;7.93;1.45;;;;;;;6.08;93.25;101400.84;5099609;28;20026;-78
2020/12/24 11:14:04;;;;;;;7.20;2.42;;;;;;;6.07;92.84;101401.72;5100006;28;20028;-79
2020/12/24 11:16:29;;;;;;;11.75;1.80;;;;;;;6.14;92.71;101401.59;5096779;28;20115;-79
2020/12/24 11:18:55;;;;;;;5.60;1.80;;;;;;;6.15;91.72;101402.47;5076014;28;20578;-81
2020/12/24 11:21:20;;;;;;;10.75;1.90;;;;;;;6.22;92.31;101401.47;5101562;28;20019;-80
2020/12/24 11:23:46;;;;;;;6.60;1.83;;;;;;;6.27;92.79;101406.63;5101921;28;20038;-80
2020/12/24 11:26:19;;;;;;;8.32;1.70;;;;;;;6.28;92.16;101409.25;5098134;28;20024;-81
2020/12/24 11:28:44;;;;;;;10.02;1.63;;;;;;;6.32;93.75;101407.41;5060478;28;20549;-80